Time;durP1;ratioP1;P1;durP2;ratioP2;P2;SDS_P1;SDS_P2;PMS_P1;PMS_P2;Temp;Humidity;BMP_temperature;BMP_pressure;BME280_temperature;BME280_humidity;BME280_pressure;Samples;Min_cycle;Max_cycle;Signal;HPM_P1;HPM_P2
2021/10/14 00:01:33;;;;;;;36.40;18.62;;;;;;;6.70;100.00;99961.13;1642674;86;22138;-73
2021/10/14 00:03:59;;;;;;;26.90;14.18;;;;;;;6.69;100.00;99964.62;1651848;86;21101;-69
2021/10/14 00:06:26;;;;;;;28.92;15.85;;;;;;;6.68;100.00;99966.38;1653720;86;21105;-72
2021/10/14 00:08:52;;;;;;;39.58;19.42;;;;;;;6.69;100.00;99965.93;1712806;83;21170;-71
2021/10/14 00:11:19;;;;;;;33.80;17.65;;;;;;;6.67;100.00;99969.02;1701918;83;21113;-71
2021/10/14 00:13:46;;;;;;;29.90;18.20;;;;;;;6.64;100.00;99966.49;1712857;83;21501;-74
2021/10/14 00:16:12;;;;;;;26.75;14.33;;;;;;;6.62;100.00;99975.67;1713053;83;21063;-71
2021/10/14 00:20:18;;;;;;;34.45;19.52;;;;;;;6.66;100.00;99964.25;1813768;79;28029;-71
2021/10/14 00:22:45;;;;;;;29.10;15.88;;;;;;;6.61;100.00;99970.05;1787056;80;21068;-72
2021/10/14 00:25:11;;;;;;;30.57;16.82;;;;;;;6.59;100.00;99968.36;1787023;80;21104;-72
2021/10/14 00:27:38;;;;;;;30.40;16.97;;;;;;;6.60;100.00;99968.76;1787122;80;21618;-72
2021/10/14 00:30:05;;;;;;;34.67;18.17;;;;;;;6.59;100.00;99974.45;1787087;80;20989;-73
2021/10/14 00:32:32;;;;;;;33.15;18.77;;;;;;;6.58;100.00;99975.36;1766172;80;21521;-72
2021/10/14 00:34:58;;;;;;;28.90;15.50;;;;;;;6.58;100.00;99971.86;1758520;81;21041;-71
2021/10/14 00:37:24;;;;;;;23.65;13.20;;;;;;;6.56;100.00;99973.67;1760345;81;21519;-71
2021/10/14 00:39:51;;;;;;;27.42;15.40;;;;;;;6.55;100.00;99969.33;1760676;81;21044;-69
2021/10/14 00:42:18;;;;;;;28.47;15.83;;;;;;;6.56;100.00;99971.06;1758441;81;21020;-70
2021/10/14 00:44:51;;;;;;;28.75;15.90;;;;;;;6.54;100.00;99975.47;1739764;81;21677;-71
2021/10/14 00:47:22;;;;;;;30.12;15.18;;;;;;;6.53;100.00;99972.42;1728441;82;21072;-70
2021/10/14 00:49:49;;;;;;;28.32;15.53;;;;;;;6.54;100.00;99975.47;1728024;83;21124;-70
2021/10/14 00:52:16;;;;;;;26.93;13.70;;;;;;;6.54;100.00;99975.47;1728143;83;21128;-70
2021/10/14 00:54:46;;;;;;;27.25;14.35;;;;;;;6.53;100.00;99981.58;1726889;83;21591;-70
2021/10/14 00:57:13;;;;;;;23.92;13.80;;;;;;;6.51;100.00;99982.48;1728046;83;21052;-71
2021/10/14 00:59:40;;;;;;;26.68;13.93;;;;;;;6.47;100.00;99984.75;1727844;83;22336;-72
2021/10/14 01:02:07;;;;;;;23.55;12.58;;;;;;;6.47;100.00;99986.06;1728206;83;21157;-69
2021/10/14 01:04:33;;;;;;;24.50;12.33;;;;;;;6.46;100.00;99994.78;1732371;81;21081;-73
2021/10/14 01:07:00;;;;;;;30.88;14.43;;;;;;;6.44;100.00;99999.22;1758088;81;21152;-71
2021/10/14 01:09:27;;;;;;;28.87;14.18;;;;;;;6.46;100.00;100001.33;1757903;81;21512;-72
2021/10/14 01:11:53;;;;;;;20.85;11.43;;;;;;;6.44;100.00;100002.26;1758218;81;21065;-72
2021/10/14 01:14:19;;;;;;;20.97;11.28;;;;;;;6.44;100.00;100004.45;1757945;81;21559;-71
2021/10/14 01:16:47;;;;;;;33.15;12.78;;;;;;;6.45;100.00;100000.92;1758072;81;21068;-72
2021/10/14 01:19:14;;;;;;;24.55;13.43;;;;;;;6.46;100.00;100013.09;1752212;80;21101;-71
2021/10/14 01:21:41;;;;;;;23.77;12.68;;;;;;;6.48;100.00;100011.77;1744595;82;21069;-72
2021/10/14 01:24:08;;;;;;;26.20;13.53;;;;;;;6.48;100.00;100008.70;1744915;82;21065;-71
2021/10/14 01:26:37;;;;;;;23.45;13.20;;;;;;;6.48;100.00;100008.70;1744849;82;21163;-73
2021/10/14 01:29:03;;;;;;;25.00;13.38;;;;;;;6.48;100.00;99998.23;1723614;82;21053;-73
2021/10/14 01:31:30;;;;;;;24.30;13.50;;;;;;;6.48;100.00;100006.08;1744365;82;21044;-73
2021/10/14 01:33:56;;;;;;;23.65;12.58;;;;;;;6.49;100.00;100005.20;1744529;82;22173;-73
2021/10/14 01:36:23;;;;;;;23.35;12.73;;;;;;;6.49;100.00;100010.89;1744383;82;21170;-74
2021/10/14 01:38:50;;;;;;;23.18;13.00;;;;;;;6.50;100.00;100014.76;1744467;80;21127;-73
2021/10/14 01:41:16;;;;;;;22.02;13.25;;;;;;;6.50;100.00;100016.52;1744538;82;21620;-73
2021/10/14 01:43:43;;;;;;;19.73;11.35;;;;;;;6.49;100.00;100025.28;1744511;82;21132;-72
2021/10/14 01:46:10;;;;;;;23.02;12.63;;;;;;;6.48;100.00;100029.63;1744662;82;21034;-73
2021/10/14 01:48:36;;;;;;;23.27;11.85;;;;;;;6.47;100.00;100029.68;1744728;82;21045;-73
2021/10/14 01:51:04;;;;;;;20.65;12.75;;;;;;;6.47;100.00;100038.38;1744625;82;21978;-73
2021/10/14 01:53:30;;;;;;;15.38;9.88;;;;;;;6.47;100.00;100037.53;1744389;80;21033;-73
2021/10/14 01:55:57;;;;;;;18.05;10.65;;;;;;;6.46;100.00;100044.48;1744388;80;21108;-73
2021/10/14 01:58:23;;;;;;;25.82;12.82;;;;;;;6.46;100.00;100044.48;1744301;82;21082;-73
2021/10/14 02:00:51;;;;;;;24.43;11.57;;;;;;;6.45;100.00;100045.40;1782862;80;21042;-72
2021/10/14 02:03:18;;;;;;;20.50;11.85;;;;;;;6.43;100.00;100051.11;1703231;83;21148;-73
2021/10/14 02:05:45;;;;;;;18.75;11.05;;;;;;;6.42;100.00;100055.94;1739104;79;21080;-73
2021/10/14 02:08:11;;;;;;;21.00;11.15;;;;;;;6.42;100.00;100054.63;1744441;82;21045;-72
2021/10/14 02:10:38;;;;;;;21.15;11.38;;;;;;;6.42;100.00;100057.67;1744320;82;21053;-73
2021/10/14 02:13:05;;;;;;;21.05;12.33;;;;;;;6.41;100.00;100048.97;1744754;82;21097;-72
2021/10/14 02:15:31;;;;;;;21.48;11.15;;;;;;;6.42;100.00;100050.70;1744238;82;21329;-73
2021/10/14 02:17:58;;;;;;;20.50;12.00;;;;;;;6.43;100.00;100047.64;1744529;82;21017;-72
2021/10/14 02:20:25;;;;;;;23.38;11.48;;;;;;;6.44;100.00;100054.16;1744263;80;21046;-71
2021/10/14 02:22:51;;;;;;;19.10;11.93;;;;;;;6.43;100.00;100049.80;1744332;82;21595;-72
2021/10/14 02:25:18;;;;;;;16.25;10.50;;;;;;;6.42;100.00;100055.05;1744745;82;21045;-72
2021/10/14 02:27:45;;;;;;;19.12;11.43;;;;;;;6.43;100.00;100057.64;1744411;82;21147;-71
2021/10/14 02:30:13;;;;;;;19.40;11.50;;;;;;;6.42;100.00;100067.71;1744533;82;21076;-72
2021/10/14 02:32:39;;;;;;;22.02;11.35;;;;;;;6.39;100.00;100067.75;1744526;82;21065;-71
2021/10/14 02:35:08;;;;;;;19.80;10.65;;;;;;;6.39;100.00;100075.59;1744698;82;21056;-71
2021/10/14 02:37:35;;;;;;;19.27;11.18;;;;;;;6.37;100.00;100073.45;1747313;80;21060;-71
2021/10/14 02:40:05;;;;;;;18.62;10.93;;;;;;;6.38;100.00;100076.51;1750001;82;21105;-70
2021/10/14 02:42:32;;;;;;;20.40;11.80;;;;;;;6.39;100.00;100082.14;1749163;82;21571;-70
2021/10/14 02:44:58;;;;;;;16.67;11.15;;;;;;;6.40;100.00;100086.50;1724540;82;21086;-72
2021/10/14 02:47:24;;;;;;;16.52;10.15;;;;;;;6.40;100.00;100092.18;1714690;83;21078;-73
2021/10/14 02:49:51;;;;;;;12.93;8.23;;;;;;;6.38;100.00;100090.89;1715045;83;21637;-69
2021/10/14 02:52:18;;;;;;;12.55;8.58;;;;;;;6.37;100.00;100087.84;1716207;83;21638;-70
2021/10/14 02:54:45;;;;;;;16.67;10.25;;;;;;;6.39;100.00;100089.98;1717050;82;21051;-71
2021/10/14 02:57:12;;;;;;;19.07;11.30;;;;;;;6.40;100.00;100096.95;1714745;83;21066;-69
2021/10/14 02:59:38;;;;;;;18.52;11.70;;;;;;;6.40;100.00;100096.95;1714585;82;21104;-71
2021/10/14 03:02:05;;;;;;;16.37;8.30;;;;;;;6.39;100.00;100098.29;1680064;85;21044;-71
2021/10/14 03:04:32;;;;;;;23.25;10.40;;;;;;;6.35;100.00;100101.43;1720824;82;21910;-72
2021/10/14 03:07:00;;;;;;;18.45;10.82;;;;;;;6.33;100.00;100097.09;1729408;82;21120;-71
2021/10/14 03:09:26;;;;;;;18.70;9.80;;;;;;;6.29;100.00;100102.84;1729562;82;21039;-71
2021/10/14 03:11:53;;;;;;;19.50;11.22;;;;;;;6.25;100.00;100105.10;1730022;82;22268;-71
2021/10/14 03:14:19;;;;;;;20.20;10.50;;;;;;;6.17;100.00;100107.88;1729701;82;21090;-71
2021/10/14 03:16:45;;;;;;;17.85;11.05;;;;;;;6.09;100.00;100111.92;1729470;82;21668;-72
2021/10/14 03:19:12;;;;;;;17.82;10.78;;;;;;;6.02;100.00;100116.86;1731502;82;21222;-72
2021/10/14 03:21:40;;;;;;;18.57;10.98;;;;;;;5.98;100.00;100120.44;1742943;82;21101;-73
2021/10/14 03:24:07;;;;;;;17.15;11.33;;;;;;;5.91;100.00;100124.45;1750599;81;21659;-76
2021/10/14 03:26:34;;;;;;;19.75;11.45;;;;;;;5.82;100.00;100124.16;1757688;81;21053;-74
2021/10/14 03:29:00;;;;;;;20.32;10.40;;;;;;;5.75;100.00;100129.08;1751326;81;21089;-75
2021/10/14 03:31:27;;;;;;;16.45;10.60;;;;;;;5.67;100.00;100128.77;1751487;81;21015;-76
2021/10/14 03:33:56;;;;;;;22.55;11.55;;;;;;;5.62;100.00;100127.99;1690832;84;21065;-75
2021/10/14 03:36:22;;;;;;;18.05;11.03;;;;;;;5.55;100.00;100129.44;1706319;83;21076;-78
2021/10/14 03:41:15;;;;;;;19.05;11.15;;;;;;;5.42;100.00;100133.53;1807741;78;28107;-77
2021/10/14 03:43:41;;;;;;;16.65;9.93;;;;;;;5.32;100.00;100136.34;1771259;80;21590;-79
2021/10/14 03:46:08;;;;;;;19.52;11.45;;;;;;;5.22;100.00;100131.25;1768761;80;21468;-78
2021/10/14 03:48:35;;;;;;;15.28;9.70;;;;;;;5.17;100.00;100146.55;1751477;80;21057;-79
2021/10/14 03:51:01;;;;;;;18.37;10.90;;;;;;;5.10;100.00;100135.33;1760578;80;21103;-76
2021/10/14 03:53:28;;;;;;;19.92;11.90;;;;;;;5.05;100.00;100138.45;1752849;80;21100;-73
2021/10/14 03:55:54;;;;;;;19.65;11.80;;;;;;;5.00;100.00;100141.58;1748788;80;21096;-75
2021/10/14 03:58:21;;;;;;;20.92;11.60;;;;;;;4.96;100.00;100137.28;1745323;82;21145;-74
2021/10/14 04:00:47;;;;;;;19.00;10.58;;;;;;;4.91;100.00;100147.78;1745601;82;21052;-73
2021/10/14 04:03:14;;;;;;;22.07;12.63;;;;;;;4.85;100.00;100147.85;1746040;82;21103;-75
2021/10/14 04:05:41;;;;;;;23.60;12.37;;;;;;;4.79;100.00;100150.12;1754705;80;21061;-74
2021/10/14 04:08:07;;;;;;;23.95;12.05;;;;;;;4.76;100.00;100152.78;1746005;82;21138;-73
2021/10/14 04:10:33;;;;;;;22.10;12.47;;;;;;;4.73;100.00;100155.41;1745580;82;22144;-77
2021/10/14 04:12:59;;;;;;;25.55;13.65;;;;;;;4.67;100.00;100155.50;1745223;82;21077;-77
2021/10/14 04:15:26;;;;;;;25.00;12.45;;;;;;;4.63;100.00;100161.63;1744522;82;21092;-78
2021/10/14 04:17:52;;;;;;;21.12;13.08;;;;;;;4.57;100.00;100161.25;1745220;82;21100;-73
2021/10/14 04:20:19;;;;;;;21.05;13.43;;;;;;;4.54;100.00;100168.27;1745165;82;21044;-76
2021/10/14 04:22:46;;;;;;;21.45;12.68;;;;;;;4.50;100.00;100179.16;1745318;82;21065;-73
2021/10/14 04:25:12;;;;;;;20.32;12.37;;;;;;;4.47;100.00;100176.59;1745010;82;21068;-73
2021/10/14 04:27:39;;;;;;;19.48;11.05;;;;;;;4.46;100.00;100184.42;1745592;82;21100;-73
2021/10/14 04:30:06;;;;;;;17.73;10.60;;;;;;;4.45;100.00;100186.63;1755777;80;21096;-73
2021/10/14 04:32:33;;;;;;;16.30;10.10;;;;;;;4.41;100.00;100178.81;1776493;80;21045;-75
2021/10/14 04:35:00;;;;;;;25.80;11.90;;;;;;;4.40;100.00;100186.67;1749331;80;21548;-74
2021/10/14 04:37:26;;;;;;;20.48;11.65;;;;;;;4.38;100.00;100184.07;1749677;80;21501;-73
2021/10/14 04:39:52;;;;;;;21.55;11.83;;;;;;;4.37;100.00;100194.09;1751129;80;21060;-74
2021/10/14 04:42:19;;;;;;;19.70;11.73;;;;;;;4.36;100.00;100192.34;1766686;80;21053;-72
2021/10/14 04:44:45;;;;;;;20.50;9.60;;;;;;;4.35;100.00;100199.77;1764306;80;21131;-73
2021/10/14 04:47:18;;;;;;;23.10;12.90;;;;;;;4.38;100.00;100202.77;1738265;78;21588;-83
2021/10/14 04:49:41;;;;;;;24.98;12.73;;;;;;;4.37;100.00;100204.52;1689972;82;21120;-81
2021/10/14 04:52:07;;;;;;;19.50;11.48;;;;;;;4.35;100.00;100218.02;1662091;86;21145;-85
2021/10/14 04:54:35;;;;;;;24.32;13.18;;;;;;;4.33;100.00;100215.86;1692538;83;21093;-83
2021/10/14 04:57:02;;;;;;;20.75;12.58;;;;;;;4.32;100.00;100225.84;1685294;83;21096;-82
2021/10/14 04:59:28;;;;;;;23.00;12.37;;;;;;;4.29;100.00;100227.19;1691419;84;21141;-82
2021/10/14 05:01:55;;;;;;;22.15;13.90;;;;;;;4.27;100.00;100223.73;1694617;83;21631;-82
2021/10/14 05:04:21;;;;;;;23.60;13.25;;;;;;;4.24;100.00;100226.38;1710158;83;21096;-82
2021/10/14 05:06:48;;;;;;;25.68;14.33;;;;;;;4.24;100.00;100236.80;1723700;83;21610;-82
2021/10/14 05:09:14;;;;;;;26.48;13.45;;;;;;;4.21;100.00;100242.06;1724021;81;21108;-82
2021/10/14 05:11:50;;;;;;;31.37;15.18;;;;;;;4.19;100.00;100251.63;1709957;83;21525;-82
2021/10/14 05:14:16;;;;;;;27.62;15.38;;;;;;;4.19;100.00;100252.94;1717319;82;21081;-83
2021/10/14 05:16:42;;;;;;;24.85;14.25;;;;;;;4.17;100.00;100255.55;1723732;83;21060;-82
2021/10/14 05:19:09;;;;;;;22.22;14.40;;;;;;;4.18;100.00;100260.31;1710920;83;21085;-82
2021/10/14 05:21:36;;;;;;;25.00;14.73;;;;;;;4.27;100.00;100266.75;1718813;82;21566;-82
2021/10/14 05:24:03;;;;;;;26.10;16.02;;;;;;;4.61;100.00;100265.98;1724069;81;21449;-82
2021/10/14 05:26:31;;;;;;;23.50;14.20;;;;;;;5.23;100.00;100265.27;1676591;83;22262;-83
2021/10/14 05:29:00;;;;;;;20.43;12.88;;;;;;;5.88;100.00;100262.59;1689375;82;21057;-83
2021/10/14 05:31:27;;;;;;;24.57;13.95;;;;;;;6.55;100.00;100262.37;1722439;83;21584;-83
2021/10/14 05:33:56;;;;;;;26.93;13.75;;;;;;;7.24;100.00;100264.48;1711632;83;21050;-83
2021/10/14 05:36:23;;;;;;;19.37;12.63;;;;;;;7.86;100.00;100260.48;1719244;83;21624;-84
2021/10/14 05:38:51;;;;;;;23.18;13.08;;;;;;;8.41;96.36;100264.39;1715779;83;21053;-83
2021/10/14 05:41:18;;;;;;;22.80;13.28;;;;;;;8.93;93.90;100273.50;1724378;83;21029;-84
2021/10/14 05:43:48;;;;;;;20.60;12.33;;;;;;;9.55;90.41;100279.61;1723424;81;21024;-84
2021/10/14 05:46:14;;;;;;;19.73;12.93;;;;;;;10.08;86.17;100270.47;1723529;81;21621;-85
2021/10/14 05:48:41;;;;;;;19.98;12.73;;;;;;;10.58;84.57;100267.95;1723886;83;21495;-83
2021/10/14 05:51:07;;;;;;;18.82;12.93;;;;;;;11.01;79.33;100275.61;1724444;79;21187;-83
2021/10/14 05:53:35;;;;;;;19.25;12.78;;;;;;;11.39;78.33;100274.66;1727588;81;21131;-84
2021/10/14 05:56:01;;;;;;;20.52;11.97;;;;;;;11.82;77.87;100276.07;1731849;81;21049;-84
2021/10/14 05:58:28;;;;;;;22.25;13.20;;;;;;;12.24;73.63;100282.75;1708920;82;21086;-82
2021/10/14 06:00:56;;;;;;;16.87;11.57;;;;;;;12.53;71.69;100278.02;1739463;81;21551;-84
2021/10/14 06:03:23;;;;;;;17.92;11.57;;;;;;;12.87;71.25;100287.13;1740742;81;21122;-82
2021/10/14 06:05:49;;;;;;;18.75;12.35;;;;;;;13.22;69.64;100287.72;1742804;81;21083;-83
2021/10/14 06:08:16;;;;;;;18.52;12.28;;;;;;;13.48;67.90;100289.69;1710660;83;21066;-84
2021/10/14 06:10:42;;;;;;;17.87;12.35;;;;;;;13.67;65.96;100296.77;1727349;82;20975;-82
2021/10/14 06:13:09;;;;;;;17.95;11.55;;;;;;;13.89;64.67;100298.77;1679574;83;21139;-83
2021/10/14 06:15:36;;;;;;;16.65;12.33;;;;;;;14.13;65.53;100297.20;1702494;83;21155;-84
2021/10/14 06:18:02;;;;;;;18.57;12.25;;;;;;;14.50;63.25;100303.31;1696852;83;21128;-84
2021/10/14 06:20:29;;;;;;;17.30;10.80;;;;;;;14.68;62.57;100303.27;1696955;83;21070;-80
2021/10/14 06:22:55;;;;;;;19.70;12.37;;;;;;;14.96;60.23;100311.59;1705387;83;21136;-83
2021/10/14 06:25:22;;;;;;;16.00;11.63;;;;;;;15.09;59.21;100311.31;1703774;83;21194;-84
2021/10/14 06:27:49;;;;;;;19.17;12.65;;;;;;;15.20;57.66;100318.23;1700538;83;21522;-84
2021/10/14 06:30:16;;;;;;;19.70;13.48;;;;;;;15.25;58.41;100316.66;1699427;83;21014;-84
2021/10/14 06:32:42;;;;;;;18.35;11.18;;;;;;;15.50;57.63;100313.54;1676678;84;20990;-80
2021/10/14 06:35:09;;;;;;;18.25;12.47;;;;;;;15.62;55.61;100316.88;1692424;83;21332;-84
2021/10/14 06:37:36;;;;;;;16.87;12.63;;;;;;;15.83;55.65;100322.82;1699277;82;21568;-83
2021/10/14 06:40:04;;;;;;;16.80;11.95;;;;;;;16.23;54.92;100322.36;1717910;80;21100;-84
2021/10/14 06:42:30;;;;;;;15.68;11.25;;;;;;;16.58;53.32;100329.60;1695981;83;21124;-83
2021/10/14 06:44:56;;;;;;;19.32;12.45;;;;;;;16.89;52.93;100325.17;1695397;84;21103;-81
2021/10/14 06:47:23;;;;;;;15.98;12.18;;;;;;;17.04;50.78;100332.69;1670625;84;21120;-83
2021/10/14 06:49:50;;;;;;;16.07;12.82;;;;;;;17.14;50.70;100323.21;1695160;83;21132;-82
2021/10/14 06:52:19;;;;;;;18.45;12.43;;;;;;;17.29;50.41;100327.57;1695542;84;21065;-84
2021/10/14 06:54:45;;;;;;;15.93;10.63;;;;;;;17.34;49.94;100329.46;1725722;81;21025;-83
2021/10/14 06:57:12;;;;;;;15.93;10.98;;;;;;;17.49;50.32;100333.48;1722829;81;21021;-83
2021/10/14 06:59:38;;;;;;;14.35;10.28;;;;;;;17.85;49.90;100332.11;1709934;83;21362;-83
2021/10/14 07:02:06;;;;;;;14.53;10.13;;;;;;;17.93;48.13;100339.16;1707388;82;22017;-82
2021/10/14 07:04:32;;;;;;;15.72;12.15;;;;;;;18.01;47.83;100338.16;1710685;83;21027;-85
2021/10/14 07:06:59;;;;;;;16.52;11.78;;;;;;;18.22;47.05;100339.45;1717652;83;21072;-82
2021/10/14 07:09:27;;;;;;;14.60;10.28;;;;;;;18.47;46.66;100339.63;1723108;83;21013;-82
2021/10/14 07:12:15;;;;;;;14.87;10.35;;;;;;;18.76;46.22;100344.34;1707958;82;21087;-80
2021/10/14 07:14:50;;;;;;;14.47;10.32;;;;;;;19.03;44.16;100345.16;1690251;83;21120;-83
2021/10/14 07:17:19;;;;;;;15.30;10.38;;;;;;;19.32;41.69;100348.94;1691092;83;21529;-84
2021/10/14 07:19:46;;;;;;;12.78;9.93;;;;;;;19.45;42.02;100348.45;1690926;84;21140;-80
2021/10/14 07:22:13;;;;;;;14.43;10.72;;;;;;;19.74;41.03;100342.91;1690919;84;21067;-83
2021/10/14 07:24:39;;;;;;;14.58;11.22;;;;;;;19.90;40.83;100346.17;1690737;83;21127;-83
2021/10/14 07:27:08;;;;;;;13.22;10.10;;;;;;;19.96;40.54;100346.69;1692978;84;22248;-84
2021/10/14 07:29:36;;;;;;;11.55;8.93;;;;;;;19.95;39.71;100344.50;1691916;83;21067;-82
2021/10/14 07:32:05;;;;;;;16.57;10.05;;;;;;;19.97;40.23;100342.58;1694741;81;21062;-84
2021/10/14 07:34:34;;;;;;;12.07;9.30;;;;;;;20.31;39.13;100334.27;1697330;83;21555;-81
2021/10/14 07:37:04;;;;;;;15.40;9.48;;;;;;;20.78;39.47;100341.53;1664060;86;22160;-80
2021/10/14 07:39:34;;;;;;;10.93;8.43;;;;;;;20.81;37.43;100340.79;1692729;83;22316;-82
2021/10/14 07:42:02;;;;;;;11.30;7.90;;;;;;;20.84;37.19;100343.71;1691908;84;21124;-79
2021/10/14 07:44:38;;;;;;;10.82;8.68;;;;;;;20.55;36.81;100345.42;1691070;84;21126;-81
2021/10/14 07:47:09;;;;;;;12.53;9.58;;;;;;;20.53;38.06;100348.70;1691260;84;21172;-79
2021/10/14 07:49:36;;;;;;;13.18;10.35;;;;;;;20.98;37.37;100344.87;1690394;84;21018;-85
2021/10/14 07:52:09;;;;;;;16.40;10.53;;;;;;;21.26;35.71;100352.09;1696010;80;21122;-76
2021/10/14 07:54:38;;;;;;;15.30;10.25;;;;;;;21.18;35.51;100351.33;1692888;83;20943;-85
2021/10/14 07:57:04;;;;;;;13.13;9.90;;;;;;;21.20;35.27;100355.23;1692293;84;21038;-85
2021/10/14 07:59:31;;;;;;;13.48;8.90;;;;;;;21.29;36.00;100353.19;1691829;84;21037;-86
2021/10/14 08:01:57;;;;;;;13.58;8.35;;;;;;;21.42;35.91;100355.30;1690639;84;21038;-84
2021/10/14 08:04:23;;;;;;;11.75;8.38;;;;;;;21.46;35.19;100356.73;1691610;84;22025;-86
2021/10/14 08:06:50;;;;;;;12.43;9.23;;;;;;;21.38;35.53;100355.98;1689803;84;21050;-84
2021/10/14 08:09:16;;;;;;;13.55;9.83;;;;;;;20.85;35.29;100364.17;1690698;84;21113;-85
2021/10/14 08:11:43;;;;;;;13.80;9.45;;;;;;;20.29;35.72;100361.60;1690247;84;21080;-85
2021/10/14 08:14:10;;;;;;;16.65;10.45;;;;;;;19.61;37.33;100368.75;1690438;84;21058;-84
2021/10/14 08:16:37;;;;;;;15.28;10.20;;;;;;;19.37;38.21;100369.53;1692089;84;21113;-84
2021/10/14 08:19:04;;;;;;;12.28;9.38;;;;;;;19.47;37.79;100369.24;1694164;84;21039;-85
2021/10/14 08:21:31;;;;;;;15.83;10.20;;;;;;;19.68;38.13;100367.35;1691432;83;90324;-84
2021/10/14 08:23:57;;;;;;;12.80;9.40;;;;;;;19.89;38.02;100371.17;1701100;84;21048;-85
2021/10/14 08:26:25;;;;;;;11.38;8.05;;;;;;;20.09;37.44;100369.74;1702365;84;21149;-84
2021/10/14 08:28:52;;;;;;;13.13;8.90;;;;;;;20.42;36.23;100376.73;1722527;83;21473;-86
2021/10/14 08:31:21;;;;;;;16.67;10.23;;;;;;;20.64;35.50;100370.18;1734471;82;21051;-86
2021/10/14 08:33:48;;;;;;;11.93;8.23;;;;;;;20.96;34.92;100368.22;1733317;81;21067;-84
2021/10/14 08:36:15;;;;;;;16.27;8.90;;;;;;;21.06;34.32;100366.53;1732886;82;21063;-83
2021/10/14 08:38:42;;;;;;;13.10;9.03;;;;;;;21.37;34.74;100365.47;1733265;81;21079;-85
2021/10/14 08:41:28;;;;;;;11.73;7.58;;;;;;;21.70;33.95;100365.17;1733082;82;21974;-85
2021/10/14 08:44:07;;;;;;;13.18;8.90;;;;;;;21.83;33.12;100367.20;1735225;80;21063;-83
2021/10/14 08:46:47;;;;;;;10.18;7.85;;;;;;;21.67;32.69;100367.61;1737476;80;20996;-85
2021/10/14 08:49:44;;;;;;;14.60;8.85;;;;;;;20.87;33.95;100373.79;1726252;81;20988;-76
2021/10/14 08:52:25;;;;;;;14.45;8.55;;;;;;;20.46;35.03;100373.71;1729271;82;20920;-84
2021/10/14 08:55:23;;;;;;;10.95;8.30;;;;;;;20.33;35.14;100386.28;1751618;80;21054;-84
2021/10/14 08:57:54;;;;;;;12.30;8.13;;;;;;;20.61;34.16;100377.57;1751584;80;21019;-84
2021/10/14 09:00:34;;;;;;;11.65;8.33;;;;;;;20.65;33.74;100378.56;1753048;81;21023;-83
2021/10/14 09:03:32;;;;;;;10.13;6.72;;;;;;;20.49;34.70;100377.48;1726965;82;21578;-84
2021/10/14 09:05:59;;;;;;;10.65;7.60;;;;;;;20.73;34.59;100380.19;1709885;82;20959;-84
2021/10/14 09:08:43;;;;;;;10.23;7.10;;;;;;;20.53;34.97;100381.64;1696637;83;21304;-84
2021/10/14 09:11:26;;;;;;;11.28;7.30;;;;;;;20.61;36.14;100383.77;1709306;82;21466;-84
2021/10/14 09:14:08;;;;;;;12.58;6.70;;;;;;;21.20;33.30;100387.38;1708884;82;20896;-84
2021/10/14 09:16:40;;;;;;;12.10;7.28;;;;;;;21.37;32.83;100390.92;1709435;82;21074;-85
2021/10/14 09:19:23;;;;;;;9.08;6.47;;;;;;;20.91;33.11;100400.70;1707585;82;21058;-85
2021/10/14 09:22:00;;;;;;;10.68;6.62;;;;;;;20.39;34.01;100408.57;1707459;83;21125;-84
2021/10/14 09:24:39;;;;;;;11.55;6.75;;;;;;;19.88;34.62;100401.55;1708215;83;21034;-83
2021/10/14 09:27:08;;;;;;;10.05;7.15;;;;;;;19.58;34.79;100403.67;1708772;82;21006;-84
2021/10/14 09:29:37;;;;;;;10.43;6.62;;;;;;;19.52;36.38;100408.14;1708918;84;21027;-84
2021/10/14 09:32:22;;;;;;;11.90;6.97;;;;;;;19.70;35.58;100409.05;1709290;83;21014;-84
2021/10/14 09:34:49;;;;;;;13.40;7.55;;;;;;;19.99;35.76;100402.59;1713595;82;21680;-85
2021/10/14 09:37:25;;;;;;;11.20;6.33;;;;;;;20.56;34.19;100414.49;1723339;82;20978;-84
2021/10/14 09:40:07;;;;;;;10.00;6.25;;;;;;;20.97;32.78;100411.41;1723037;82;21048;-85
2021/10/14 09:42:56;;;;;;;10.03;6.53;;;;;;;21.20;32.12;100406.13;1723731;82;20986;-85
2021/10/14 09:45:30;;;;;;;8.93;5.65;;;;;;;21.39;32.83;100401.03;1722658;82;21025;-85
2021/10/14 09:48:08;;;;;;;10.63;6.25;;;;;;;21.56;32.66;100408.65;1715456;82;22069;-84
2021/10/14 09:50:43;;;;;;;9.90;6.40;;;;;;;21.71;32.58;100405.72;1695529;84;21686;-84
2021/10/14 09:53:24;;;;;;;11.18;6.70;;;;;;;21.79;31.64;100408.66;1696539;84;21097;-85
2021/10/14 09:55:52;;;;;;;10.60;6.22;;;;;;;21.83;31.05;100414.13;1695704;84;21064;-85
2021/10/14 09:58:19;;;;;;;10.90;6.75;;;;;;;21.73;30.97;100409.98;1683671;83;21623;-84
2021/10/14 10:00:57;;;;;;;12.10;6.10;;;;;;;21.49;30.82;100418.64;1680139;84;21518;-84
2021/10/14 10:03:43;;;;;;;10.10;6.15;;;;;;;21.18;32.03;100416.09;1672190;84;20978;-74
2021/10/14 10:06:13;;;;;;;9.53;5.47;;;;;;;20.77;32.78;100416.08;1686470;83;21072;-80
2021/10/14 10:08:42;;;;;;;11.10;5.65;;;;;;;20.37;34.40;100423.87;1656866;84;21119;-80
2021/10/14 10:11:13;;;;;;;;;;;;;;;19.98;35.35;100416.93;1688292;84;21088;-78
2021/10/14 10:13:45;;;;;;;11.50;6.60;;;;;;;19.89;35.96;100424.63;1694818;84;20156;-79
2021/10/14 10:16:35;;;;;;;11.10;6.22;;;;;;;19.54;35.79;100418.23;1695330;84;21055;-80
2021/10/14 10:19:07;;;;;;;10.35;6.37;;;;;;;19.19;35.70;100425.05;1689323;84;21088;-79
2021/10/14 10:21:41;;;;;;;11.60;6.67;;;;;;;18.68;35.96;100444.03;1692380;84;21543;-81
2021/10/14 10:27:10;;;;;;;15.53;6.87;;;;;;;17.95;37.15;100454.48;1667831;84;21065;-81
2021/10/14 10:29:40;;;;;;;9.98;6.25;;;;;;;17.42;39.92;100455.95;1663718;86;21771;-81
2021/10/14 10:32:14;;;;;;;12.70;7.15;;;;;;;17.15;39.72;100455.30;1662492;84;21045;-79
2021/10/14 10:35:02;;;;;;;14.70;8.68;;;;;;;16.80;40.22;100456.89;1663939;86;21107;-78
2021/10/14 10:37:34;;;;;;;14.87;7.45;;;;;;;16.43;41.80;100462.95;1660608;86;21559;-78
2021/10/14 10:40:25;;;;;;;12.98;7.60;;;;;;;16.29;41.22;100462.86;1664072;85;21580;-77
2021/10/14 10:43:08;;;;;;;17.17;7.83;;;;;;;16.31;42.30;100456.97;1662297;86;21069;-80
2021/10/14 10:45:59;;;;;;;16.02;8.95;;;;;;;16.47;41.35;100456.52;1666589;86;21076;-80
2021/10/14 10:48:37;;;;;;;11.08;6.75;;;;;;;16.39;41.34;100464.05;1666475;86;21067;-81
2021/10/14 10:51:06;;;;;;;14.47;7.83;;;;;;;16.24;42.96;100463.56;1666956;86;21060;-80
2021/10/14 10:53:45;;;;;;;12.30;6.92;;;;;;;16.51;41.89;100462.02;1666707;85;21548;-78
2021/10/14 10:56:34;;;;;;;11.12;6.30;;;;;;;16.50;42.38;100465.64;1621445;88;21050;-79
2021/10/14 10:59:02;;;;;;;10.90;6.42;;;;;;;16.63;40.40;100464.94;1648257;86;21121;-82
2021/10/14 11:01:28;;;;;;;11.00;6.95;;;;;;;16.71;40.64;100468.88;1667658;86;21076;-82
2021/10/14 11:04:06;;;;;;;10.65;6.92;;;;;;;16.68;40.65;100470.84;1653843;85;21076;-82
2021/10/14 11:06:35;;;;;;;16.48;7.50;;;;;;;16.44;40.93;100468.63;1648357;85;21904;-81
2021/10/14 11:09:05;;;;;;;13.05;7.90;;;;;;;16.02;41.36;100474.53;1665650;86;21535;-82
2021/10/14 11:11:34;;;;;;;;;;;;;;;15.70;42.78;100475.30;1670293;86;21010;-82
2021/10/14 11:14:02;;;;;;;14.33;8.08;;;;;;;15.28;43.51;100472.59;1659111;86;20200;-81
2021/10/14 11:16:30;;;;;;;13.70;8.18;;;;;;;14.89;45.15;100482.93;1663379;86;21128;-81
2021/10/14 11:18:58;;;;;;;14.78;8.83;;;;;;;14.67;47.91;100482.25;1642362;86;21479;-79
2021/10/14 11:21:26;;;;;;;15.55;9.55;;;;;;;14.48;47.43;100486.23;1609265;87;21085;-80
2021/10/14 11:23:57;;;;;;;18.67;10.25;;;;;;;14.28;48.56;100486.69;1635457;87;21068;-79
2021/10/14 11:26:38;;;;;;;18.25;9.78;;;;;;;14.17;48.79;100489.44;1634641;86;21097;-79
2021/10/14 11:29:05;;;;;;;21.20;11.38;;;;;;;14.04;49.53;100490.02;1634325;87;21096;-80
2021/10/14 11:31:58;;;;;;;18.20;11.33;;;;;;;13.93;50.34;100498.05;1655187;84;21149;-80